sensor_id;sensor_type;location;lat;lon;timestamp;temperature;humidity
65582;DHT22;52231;40.090;18.348;2022-12-18T00:00:25;10.70;89.10
65582;DHT22;52231;40.090;18.348;2022-12-18T00:02:53;10.60;88.90
65582;DHT22;52231;40.090;18.348;2022-12-18T00:05:21;10.60;88.80
65582;DHT22;52231;40.090;18.348;2022-12-18T00:07:49;10.60;88.80
65582;DHT22;52231;40.090;18.348;2022-12-18T00:10:18;10.60;89.20
65582;DHT22;52231;40.090;18.348;2022-12-18T00:12:46;10.60;89.20
65582;DHT22;52231;40.090;18.348;2022-12-18T00:15:14;10.60;89.10
65582;DHT22;52231;40.090;18.348;2022-12-18T00:17:42;10.60;89.10
65582;DHT22;52231;40.090;18.348;2022-12-18T00:20:10;10.50;89.20
65582;DHT22;52231;40.090;18.348;2022-12-18T00:23:06;10.60;89.40
65582;DHT22;52231;40.090;18.348;2022-12-18T00:40:29;10.30;89.20
65582;DHT22;52231;40.090;18.348;2022-12-18T00:42:57;10.30;89.20
65582;DHT22;52231;40.090;18.348;2022-12-18T00:45:28;10.30;89.40
65582;DHT22;52231;40.090;18.348;2022-12-18T00:47:58;10.20;89.50
65582;DHT22;52231;40.090;18.348;2022-12-18T00:50:26;10.20;89.70
65582;DHT22;52231;40.090;18.348;2022-12-18T00:53:19;10.30;89.70
65582;DHT22;52231;40.090;18.348;2022-12-18T00:55:47;10.30;89.50
65582;DHT22;52231;40.090;18.348;2022-12-18T00:58:18;10.20;89.30
65582;DHT22;52231;40.090;18.348;2022-12-18T01:00:46;10.10;89.20
65582;DHT22;52231;40.090;18.348;2022-12-18T01:03:15;10.00;89.40
65582;DHT22;52231;40.090;18.348;2022-12-18T01:05:43;10.10;89.60
65582;DHT22;52231;40.090;18.348;2022-12-18T01:08:11;10.10;89.70
65582;DHT22;52231;40.090;18.348;2022-12-18T01:10:44;10.10;89.70
65582;DHT22;52231;40.090;18.348;2022-12-18T01:13:12;10.10;89.70
65582;DHT22;52231;40.090;18.348;2022-12-18T01:15:47;10.10;89.60
65582;DHT22;52231;40.090;18.348;2022-12-18T01:18:15;10.10;89.60
65582;DHT22;52231;40.090;18.348;2022-12-18T01:20:44;10.10;89.70
65582;DHT22;52231;40.090;18.348;2022-12-18T01:23:12;10.20;89.60
65582;DHT22;52231;40.090;18.348;2022-12-18T01:25:40;10.10;89.40
65582;DHT22;52231;40.090;18.348;2022-12-18T01:28:10;10.10;89.30
65582;DHT22;52231;40.090;18.348;2022-12-18T01:30:38;10.10;89.40
65582;DHT22;52231;40.090;18.348;2022-12-18T01:33:06;10.10;89.50
65582;DHT22;52231;40.090;18.348;2022-12-18T01:35:40;10.10;89.50
65582;DHT22;52231;40.090;18.348;2022-12-18T01:38:08;10.10;89.50
65582;DHT22;52231;40.090;18.348;2022-12-18T01:40:36;10.10;89.40
65582;DHT22;52231;40.090;18.348;2022-12-18T01:43:05;10.00;89.40
65582;DHT22;52231;40.090;18.348;2022-12-18T01:45:33;10.00;89.20
65582;DHT22;52231;40.090;18.348;2022-12-18T01:48:05;9.90;89.10
65582;DHT22;52231;40.090;18.348;2022-12-18T01:50:37;9.90;89.00
65582;DHT22;52231;40.090;18.348;2022-12-18T01:53:24;9.80;88.80
65582;DHT22;52231;40.090;18.348;2022-12-18T01:55:56;9.80;88.80
65582;DHT22;52231;40.090;18.348;2022-12-18T02:01:01;9.70;88.80
65582;DHT22;52231;40.090;18.348;2022-12-18T02:03:32;9.70;88.80
65582;DHT22;52231;40.090;18.348;2022-12-18T02:06:09;9.60;88.80
65582;DHT22;52231;40.090;18.348;2022-12-18T02:08:43;9.60;89.00
65582;DHT22;52231;40.090;18.348;2022-12-18T02:14:45;9.60;89.30
65582;DHT22;52231;40.090;18.348;2022-12-18T02:17:00;9.60;89.50
65582;DHT22;52231;40.090;18.348;2022-12-18T02:22:42;9.60;89.70
65582;DHT22;52231;40.090;18.348;2022-12-18T02:27:56;9.70;90.00
65582;DHT22;52231;40.090;18.348;2022-12-18T02:30:31;9.70;90.00
65582;DHT22;52231;40.090;18.348;2022-12-18T02:33:04;9.60;89.90
65582;DHT22;52231;40.090;18.348;2022-12-18T02:35:34;9.60;89.70
65582;DHT22;52231;40.090;18.348;2022-12-18T02:38:04;9.50;89.70
65582;DHT22;52231;40.090;18.348;2022-12-18T02:40:36;9.50;89.70
65582;DHT22;52231;40.090;18.348;2022-12-18T02:43:11;9.50;89.70
65582;DHT22;52231;40.090;18.348;2022-12-18T02:45:50;9.50;89.90
65582;DHT22;52231;40.090;18.348;2022-12-18T02:48:23;9.50;90.20
65582;DHT22;52231;40.090;18.348;2022-12-18T02:51:02;9.50;90.30
65582;DHT22;52231;40.090;18.348;2022-12-18T02:54:16;9.60;90.30
65582;DHT22;52231;40.090;18.348;2022-12-18T02:56:53;9.50;90.00
65582;DHT22;52231;40.090;18.348;2022-12-18T02:59:33;9.40;89.90
65582;DHT22;52231;40.090;18.348;2022-12-18T03:02:25;9.30;89.70
65582;DHT22;52231;40.090;18.348;2022-12-18T03:07:43;9.20;89.70
65582;DHT22;52231;40.090;18.348;2022-12-18T03:10:19;9.20;89.70
65582;DHT22;52231;40.090;18.348;2022-12-18T03:12:51;9.20;89.90
65582;DHT22;52231;40.090;18.348;2022-12-18T03:15:25;9.20;89.90
65582;DHT22;52231;40.090;18.348;2022-12-18T03:18:32;9.20;90.10
65582;DHT22;52231;40.090;18.348;2022-12-18T03:21:05;9.30;90.20
65582;DHT22;52231;40.090;18.348;2022-12-18T03:23:48;9.30;90.30
65582;DHT22;52231;40.090;18.348;2022-12-18T03:26:22;9.30;90.20
65582;DHT22;52231;40.090;18.348;2022-12-18T03:29:02;9.30;90.10
65582;DHT22;52231;40.090;18.348;2022-12-18T03:31:32;9.30;90.10
65582;DHT22;52231;40.090;18.348;2022-12-18T03:34:19;9.30;90.10
65582;DHT22;52231;40.090;18.348;2022-12-18T03:36:50;9.30;90.10
65582;DHT22;52231;40.090;18.348;2022-12-18T03:39:19;9.30;90.10
65582;DHT22;52231;40.090;18.348;2022-12-18T03:42:32;9.30;90.10
65582;DHT22;52231;40.090;18.348;2022-12-18T03:45:42;9.30;90.20
65582;DHT22;52231;40.090;18.348;2022-12-18T03:48:19;9.40;90.30
65582;DHT22;52231;40.090;18.348;2022-12-18T03:50:56;9.40;90.30
65582;DHT22;52231;40.090;18.348;2022-12-18T03:53:44;9.40;90.20
65582;DHT22;52231;40.090;18.348;2022-12-18T03:56:17;9.30;90.20
65582;DHT22;52231;40.090;18.348;2022-12-18T03:58:48;9.30;90.20
65582;DHT22;52231;40.090;18.348;2022-12-18T04:01:31;9.30;90.30
65582;DHT22;52231;40.090;18.348;2022-12-18T04:04:01;9.40;90.40
65582;DHT22;52231;40.090;18.348;2022-12-18T04:06:34;9.40;90.50
65582;DHT22;52231;40.090;18.348;2022-12-18T04:09:04;9.40;90.60
65582;DHT22;52231;40.090;18.348;2022-12-18T04:11:51;9.40;90.60
65582;DHT22;52231;40.090;18.348;2022-12-18T04:14:20;9.40;90.70
65582;DHT22;52231;40.090;18.348;2022-12-18T04:16:53;9.40;90.60
65582;DHT22;52231;40.090;18.348;2022-12-18T04:19:27;9.40;90.60
65582;DHT22;52231;40.090;18.348;2022-12-18T04:22:14;9.30;90.50
65582;DHT22;52231;40.090;18.348;2022-12-18T04:24:47;9.30;90.60
65582;DHT22;52231;40.090;18.348;2022-12-18T04:27:24;9.30;90.70
65582;DHT22;52231;40.090;18.348;2022-12-18T04:29:52;9.30;90.80
65582;DHT22;52231;40.090;18.348;2022-12-18T04:32:20;9.40;90.80
65582;DHT22;52231;40.090;18.348;2022-12-18T04:34:50;9.40;90.80
65582;DHT22;52231;40.090;18.348;2022-12-18T04:37:18;9.40;90.80
65582;DHT22;52231;40.090;18.348;2022-12-18T04:39:49;9.30;90.80
65582;DHT22;52231;40.090;18.348;2022-12-18T04:42:24;9.30;90.80
65582;DHT22;52231;40.090;18.348;2022-12-18T04:44:52;9.30;90.70
65582;DHT22;52231;40.090;18.348;2022-12-18T04:47:21;9.30;90.70
65582;DHT22;52231;40.090;18.348;2022-12-18T04:49:49;9.30;90.70
65582;DHT22;52231;40.090;18.348;2022-12-18T04:52:17;9.30;90.80
65582;DHT22;52231;40.090;18.348;2022-12-18T04:54:45;9.30;90.90
65582;DHT22;52231;40.090;18.348;2022-12-18T04:57:13;9.30;90.90
65582;DHT22;52231;40.090;18.348;2022-12-18T04:59:42;9.40;90.80
65582;DHT22;52231;40.090;18.348;2022-12-18T05:02:11;9.30;90.80
65582;DHT22;52231;40.090;18.348;2022-12-18T05:04:39;9.30;90.80
65582;DHT22;52231;40.090;18.348;2022-12-18T05:07:07;9.30;90.80
65582;DHT22;52231;40.090;18.348;2022-12-18T05:09:35;9.30;90.80
65582;DHT22;52231;40.090;18.348;2022-12-18T05:12:04;9.30;90.70
65582;DHT22;52231;40.090;18.348;2022-12-18T05:14:32;9.30;90.60
65582;DHT22;52231;40.090;18.348;2022-12-18T05:17:00;9.20;90.60
65582;DHT22;52231;40.090;18.348;2022-12-18T05:19:28;9.20;90.60
65582;DHT22;52231;40.090;18.348;2022-12-18T05:21:57;9.30;90.70
65582;DHT22;52231;40.090;18.348;2022-12-18T05:24:25;9.30;90.70
65582;DHT22;52231;40.090;18.348;2022-12-18T05:26:53;9.30;90.90
65582;DHT22;52231;40.090;18.348;2022-12-18T05:29:21;9.30;91.00
65582;DHT22;52231;40.090;18.348;2022-12-18T05:31:50;9.40;91.20
65582;DHT22;52231;40.090;18.348;2022-12-18T05:34:18;9.60;91.30
65582;DHT22;52231;40.090;18.348;2022-12-18T05:36:46;9.70;91.50
65582;DHT22;52231;40.090;18.348;2022-12-18T05:39:15;9.80;91.70
65582;DHT22;52231;40.090;18.348;2022-12-18T05:41:43;9.90;91.70
65582;DHT22;52231;40.090;18.348;2022-12-18T05:44:11;10.00;91.70
65582;DHT22;52231;40.090;18.348;2022-12-18T05:46:39;10.10;91.70
65582;DHT22;52231;40.090;18.348;2022-12-18T05:49:07;10.10;91.70
65582;DHT22;52231;40.090;18.348;2022-12-18T05:51:35;10.10;91.60
65582;DHT22;52231;40.090;18.348;2022-12-18T05:54:03;10.10;91.60
65582;DHT22;52231;40.090;18.348;2022-12-18T05:56:31;10.10;91.60
65582;DHT22;52231;40.090;18.348;2022-12-18T05:59:00;10.10;91.60
65582;DHT22;52231;40.090;18.348;2022-12-18T06:01:28;10.10;91.60
65582;DHT22;52231;40.090;18.348;2022-12-18T06:03:56;10.20;91.70
65582;DHT22;52231;40.090;18.348;2022-12-18T06:06:26;10.20;91.70
65582;DHT22;52231;40.090;18.348;2022-12-18T06:08:55;10.20;91.80
65582;DHT22;52231;40.090;18.348;2022-12-18T06:11:25;10.30;91.80
65582;DHT22;52231;40.090;18.348;2022-12-18T06:13:55;10.30;91.80
65582;DHT22;52231;40.090;18.348;2022-12-18T06:16:26;10.30;91.80
65582;DHT22;52231;40.090;18.348;2022-12-18T06:18:59;10.30;91.70
65582;DHT22;52231;40.090;18.348;2022-12-18T06:21:27;10.30;91.70
65582;DHT22;52231;40.090;18.348;2022-12-18T06:23:56;10.30;91.70
65582;DHT22;52231;40.090;18.348;2022-12-18T06:26:24;10.30;91.70
65582;DHT22;52231;40.090;18.348;2022-12-18T06:28:54;10.30;91.70
65582;DHT22;52231;40.090;18.348;2022-12-18T06:31:23;10.30;91.80
65582;DHT22;52231;40.090;18.348;2022-12-18T06:33:54;10.30;91.80
65582;DHT22;52231;40.090;18.348;2022-12-18T06:36:22;10.30;91.80
65582;DHT22;52231;40.090;18.348;2022-12-18T06:38:50;10.30;91.70
65582;DHT22;52231;40.090;18.348;2022-12-18T06:41:20;10.40;91.70
65582;DHT22;52231;40.090;18.348;2022-12-18T06:43:49;10.50;91.80
65582;DHT22;52231;40.090;18.348;2022-12-18T06:46:18;10.80;91.90
65582;DHT22;52231;40.090;18.348;2022-12-18T06:48:50;11.10;91.90
65582;DHT22;52231;40.090;18.348;2022-12-18T06:51:20;11.30;91.90
65582;DHT22;52231;40.090;18.348;2022-12-18T06:53:48;11.50;91.90
65582;DHT22;52231;40.090;18.348;2022-12-18T06:56:17;11.70;91.80
65582;DHT22;52231;40.090;18.348;2022-12-18T06:58:45;11.90;91.70
65582;DHT22;52231;40.090;18.348;2022-12-18T07:01:14;12.10;91.60
65582;DHT22;52231;40.090;18.348;2022-12-18T07:03:42;12.10;91.40
65582;DHT22;52231;40.090;18.348;2022-12-18T07:06:14;12.00;91.20
65582;DHT22;52231;40.090;18.348;2022-12-18T07:08:43;12.00;91.00
65582;DHT22;52231;40.090;18.348;2022-12-18T07:11:11;12.00;90.90
65582;DHT22;52231;40.090;18.348;2022-12-18T07:13:40;12.00;90.80
65582;DHT22;52231;40.090;18.348;2022-12-18T07:16:11;12.00;90.80
65582;DHT22;52231;40.090;18.348;2022-12-18T07:18:43;12.00;90.70
65582;DHT22;52231;40.090;18.348;2022-12-18T07:21:17;12.20;90.70
65582;DHT22;52231;40.090;18.348;2022-12-18T07:23:46;12.30;90.60
65582;DHT22;52231;40.090;18.348;2022-12-18T07:26:18;12.40;90.60
65582;DHT22;52231;40.090;18.348;2022-12-18T07:28:47;12.70;90.60
65582;DHT22;52231;40.090;18.348;2022-12-18T07:31:19;12.80;90.50
65582;DHT22;52231;40.090;18.348;2022-12-18T07:33:48;13.00;90.30
65582;DHT22;52231;40.090;18.348;2022-12-18T07:36:17;13.10;90.20
65582;DHT22;52231;40.090;18.348;2022-12-18T07:38:49;13.30;89.90
65582;DHT22;52231;40.090;18.348;2022-12-18T07:41:18;13.40;89.60
65582;DHT22;52231;40.090;18.348;2022-12-18T07:43:47;13.40;89.50
65582;DHT22;52231;40.090;18.348;2022-12-18T07:46:16;13.50;89.20
65582;DHT22;52231;40.090;18.348;2022-12-18T07:48:44;13.60;89.10
65582;DHT22;52231;40.090;18.348;2022-12-18T07:51:13;13.60;89.00
65582;DHT22;52231;40.090;18.348;2022-12-18T07:53:41;13.50;88.90
65582;DHT22;52231;40.090;18.348;2022-12-18T07:56:13;13.50;89.00
65582;DHT22;52231;40.090;18.348;2022-12-18T07:58:58;13.50;88.90
65582;DHT22;52231;40.090;18.348;2022-12-18T08:01:29;13.70;89.20
65582;DHT22;52231;40.090;18.348;2022-12-18T08:03:58;13.80;89.00
65582;DHT22;52231;40.090;18.348;2022-12-18T08:06:26;13.90;88.90
65582;DHT22;52231;40.090;18.348;2022-12-18T08:08:55;14.20;88.70
65582;DHT22;52231;40.090;18.348;2022-12-18T08:11:25;14.50;88.10
65582;DHT22;52231;40.090;18.348;2022-12-18T08:13:54;14.70;87.70
65582;DHT22;52231;40.090;18.348;2022-12-18T08:16:23;14.80;87.10
65582;DHT22;52231;40.090;18.348;2022-12-18T08:18:52;14.90;86.70
65582;DHT22;52231;40.090;18.348;2022-12-18T08:21:26;14.90;86.80
65582;DHT22;52231;40.090;18.348;2022-12-18T08:23:57;15.20;86.60
65582;DHT22;52231;40.090;18.348;2022-12-18T08:26:28;15.30;86.00
65582;DHT22;52231;40.090;18.348;2022-12-18T08:28:58;15.40;85.30
65582;DHT22;52231;40.090;18.348;2022-12-18T08:31:28;15.60;84.90
65582;DHT22;52231;40.090;18.348;2022-12-18T08:33:57;15.90;84.30
65582;DHT22;52231;40.090;18.348;2022-12-18T08:36:26;16.00;83.70
65582;DHT22;52231;40.090;18.348;2022-12-18T08:38:54;16.00;83.40
65582;DHT22;52231;40.090;18.348;2022-12-18T08:41:23;15.90;83.80
65582;DHT22;52231;40.090;18.348;2022-12-18T08:43:51;16.00;83.90
65582;DHT22;52231;40.090;18.348;2022-12-18T08:46:39;16.30;83.50
65582;DHT22;52231;40.090;18.348;2022-12-18T08:49:10;16.30;82.90
65582;DHT22;52231;40.090;18.348;2022-12-18T08:51:39;16.30;82.90
65582;DHT22;52231;40.090;18.348;2022-12-18T08:54:11;16.30;82.90
65582;DHT22;52231;40.090;18.348;2022-12-18T08:56:40;16.20;83.00
65582;DHT22;52231;40.090;18.348;2022-12-18T08:59:08;16.00;83.10
65582;DHT22;52231;40.090;18.348;2022-12-18T09:01:38;16.00;83.30
65582;DHT22;52231;40.090;18.348;2022-12-18T09:04:07;16.00;83.80
65582;DHT22;52231;40.090;18.348;2022-12-18T09:06:36;16.30;83.60
65582;DHT22;52231;40.090;18.348;2022-12-18T09:09:05;16.30;83.10
65582;DHT22;52231;40.090;18.348;2022-12-18T09:11:33;16.30;82.90
65582;DHT22;52231;40.090;18.348;2022-12-18T09:14:02;16.20;83.30
65582;DHT22;52231;40.090;18.348;2022-12-18T09:16:31;16.20;83.40
65582;DHT22;52231;40.090;18.348;2022-12-18T09:19:01;16.30;83.50
65582;DHT22;52231;40.090;18.348;2022-12-18T09:21:32;16.50;83.10
65582;DHT22;52231;40.090;18.348;2022-12-18T09:24:05;16.80;82.90
65582;DHT22;52231;40.090;18.348;2022-12-18T09:26:36;17.30;81.90
65582;DHT22;52231;40.090;18.348;2022-12-18T09:29:04;17.30;80.60
65582;DHT22;52231;40.090;18.348;2022-12-18T09:31:35;17.40;80.00
65582;DHT22;52231;40.090;18.348;2022-12-18T09:34:04;17.50;79.90
65582;DHT22;52231;40.090;18.348;2022-12-18T09:36:32;17.40;79.80
65582;DHT22;52231;40.090;18.348;2022-12-18T09:39:02;17.60;80.20
65582;DHT22;52231;40.090;18.348;2022-12-18T09:41:53;17.40;79.80
65582;DHT22;52231;40.090;18.348;2022-12-18T09:44:27;17.60;79.60
65582;DHT22;52231;40.090;18.348;2022-12-18T09:47:11;17.60;79.20
65582;DHT22;52231;40.090;18.348;2022-12-18T09:49:47;17.50;78.70
65582;DHT22;52231;40.090;18.348;2022-12-18T09:55:11;17.50;79.70
65582;DHT22;52231;40.090;18.348;2022-12-18T09:57:51;17.80;79.30
65582;DHT22;52231;40.090;18.348;2022-12-18T10:00:23;17.60;78.90
65582;DHT22;52231;40.090;18.348;2022-12-18T10:03:15;17.40;79.30
65582;DHT22;52231;40.090;18.348;2022-12-18T10:22:01;17.80;78.60
65582;DHT22;52231;40.090;18.348;2022-12-18T10:27:18;17.80;78.50
65582;DHT22;52231;40.090;18.348;2022-12-18T10:29:49;17.80;77.90
65582;DHT22;52231;40.090;18.348;2022-12-18T10:32:22;17.60;77.70
65582;DHT22;52231;40.090;18.348;2022-12-18T10:34:53;17.40;78.10
65582;DHT22;52231;40.090;18.348;2022-12-18T10:37:28;17.40;78.70
65582;DHT22;52231;40.090;18.348;2022-12-18T10:40:13;17.10;78.10
65582;DHT22;52231;40.090;18.348;2022-12-18T10:42:45;17.00;79.20
65582;DHT22;52231;40.090;18.348;2022-12-18T10:45:14;17.30;78.70
65582;DHT22;52231;40.090;18.348;2022-12-18T10:47:45;17.50;78.50
65582;DHT22;52231;40.090;18.348;2022-12-18T10:50:29;17.90;77.60
65582;DHT22;52231;40.090;18.348;2022-12-18T10:53:27;18.20;76.90
65582;DHT22;52231;40.090;18.348;2022-12-18T10:55:58;18.10;75.10
65582;DHT22;52231;40.090;18.348;2022-12-18T11:01:12;17.90;75.10
65582;DHT22;52231;40.090;18.348;2022-12-18T11:03:46;17.90;75.70
65582;DHT22;52231;40.090;18.348;2022-12-18T11:06:29;18.20;75.30
65582;DHT22;52231;40.090;18.348;2022-12-18T11:09:05;18.40;75.10
65582;DHT22;52231;40.090;18.348;2022-12-18T11:11:37;18.40;74.00
65582;DHT22;52231;40.090;18.348;2022-12-18T11:14:18;18.30;73.90
65582;DHT22;52231;40.090;18.348;2022-12-18T11:16:49;18.10;74.30
65582;DHT22;52231;40.090;18.348;2022-12-18T11:19:58;18.00;74.60
65582;DHT22;52231;40.090;18.348;2022-12-18T11:22:29;18.00;74.50
65582;DHT22;52231;40.090;18.348;2022-12-18T11:27:59;18.20;73.90
65582;DHT22;52231;40.090;18.348;2022-12-18T11:30:34;18.70;72.60
65582;DHT22;52231;40.090;18.348;2022-12-18T11:33:10;19.10;71.30
65582;DHT22;52231;40.090;18.348;2022-12-18T11:38:39;19.40;68.00
65582;DHT22;52231;40.090;18.348;2022-12-18T11:43:59;18.40;70.60
65582;DHT22;52231;40.090;18.348;2022-12-18T11:46:37;18.00;71.90
65582;DHT22;52231;40.090;18.348;2022-12-18T11:54:16;18.00;72.50
65582;DHT22;52231;40.090;18.348;2022-12-18T12:02:46;17.80;74.30
65582;DHT22;52231;40.090;18.348;2022-12-18T12:08:02;18.30;71.50
65582;DHT22;52231;40.090;18.348;2022-12-18T12:14:04;18.50;69.80
65582;DHT22;52231;40.090;18.348;2022-12-18T12:22:39;18.80;69.30
65582;DHT22;52231;40.090;18.348;2022-12-18T12:25:37;18.90;68.70
65582;DHT22;52231;40.090;18.348;2022-12-18T12:33:52;18.70;68.70
65582;DHT22;52231;40.090;18.348;2022-12-18T12:39:12;18.80;69.30
65582;DHT22;52231;40.090;18.348;2022-12-18T12:41:42;18.70;69.70
65582;DHT22;52231;40.090;18.348;2022-12-18T12:44:42;18.80;69.80
65582;DHT22;52231;40.090;18.348;2022-12-18T12:47:19;18.60;68.70
65582;DHT22;52231;40.090;18.348;2022-12-18T12:49:49;18.10;70.50
65582;DHT22;52231;40.090;18.348;2022-12-18T12:54:58;17.40;73.30
65582;DHT22;52231;40.090;18.348;2022-12-18T12:57:36;17.30;74.40
65582;DHT22;52231;40.090;18.348;2022-12-18T13:00:29;17.70;73.80
65582;DHT22;52231;40.090;18.348;2022-12-18T13:05:54;17.80;73.20
65582;DHT22;52231;40.090;18.348;2022-12-18T13:08:31;17.70;73.80
65582;DHT22;52231;40.090;18.348;2022-12-18T13:11:00;17.70;73.70
65582;DHT22;52231;40.090;18.348;2022-12-18T13:13:55;17.80;73.80
65582;DHT22;52231;40.090;18.348;2022-12-18T13:16:25;17.60;73.90
65582;DHT22;52231;40.090;18.348;2022-12-18T13:18:57;17.50;74.30
65582;DHT22;52231;40.090;18.348;2022-12-18T13:21:32;17.80;74.20
65582;DHT22;52231;40.090;18.348;2022-12-18T13:26:53;17.60;74.10
65582;DHT22;52231;40.090;18.348;2022-12-18T13:29:56;17.60;74.10
65582;DHT22;52231;40.090;18.348;2022-12-18T13:32:25;17.60;74.50
65582;DHT22;52231;40.090;18.348;2022-12-18T13:37:54;17.20;75.90
65582;DHT22;52231;40.090;18.348;2022-12-18T13:40:54;17.10;75.90
65582;DHT22;52231;40.090;18.348;2022-12-18T13:43:30;16.80;75.90
65582;DHT22;52231;40.090;18.348;2022-12-18T13:48:28;16.30;77.80
65582;DHT22;52231;40.090;18.348;2022-12-18T13:53:53;16.40;78.10
65582;DHT22;52231;40.090;18.348;2022-12-18T13:56:25;16.70;77.80
65582;DHT22;52231;40.090;18.348;2022-12-18T13:59:11;16.70;77.10
65582;DHT22;52231;40.090;18.348;2022-12-18T14:01:51;16.50;77.50
65582;DHT22;52231;40.090;18.348;2022-12-18T14:04:29;16.30;78.20
65582;DHT22;52231;40.090;18.348;2022-12-18T14:07:18;16.10;79.00
65582;DHT22;52231;40.090;18.348;2022-12-18T14:09:53;15.90;79.40
65582;DHT22;52231;40.090;18.348;2022-12-18T14:12:30;15.90;79.90
65582;DHT22;52231;40.090;18.348;2022-12-18T14:15:34;15.90;79.50
65582;DHT22;52231;40.090;18.348;2022-12-18T14:20:52;15.90;79.50
65582;DHT22;52231;40.090;18.348;2022-12-18T14:23:36;15.80;79.70
65582;DHT22;52231;40.090;18.348;2022-12-18T14:26:27;15.70;80.30
65582;DHT22;52231;40.090;18.348;2022-12-18T14:29:46;15.70;80.50
65582;DHT22;52231;40.090;18.348;2022-12-18T14:32:12;15.60;81.00
65582;DHT22;52231;40.090;18.348;2022-12-18T14:34:53;15.50;81.10
65582;DHT22;52231;40.090;18.348;2022-12-18T14:37:26;15.40;81.30
65582;DHT22;52231;40.090;18.348;2022-12-18T14:40:01;15.30;81.50
65582;DHT22;52231;40.090;18.348;2022-12-18T14:42:37;15.30;81.60
65582;DHT22;52231;40.090;18.348;2022-12-18T14:45:32;15.30;81.70
65582;DHT22;52231;40.090;18.348;2022-12-18T14:48:11;15.30;81.90
65582;DHT22;52231;40.090;18.348;2022-12-18T14:50:59;15.30;82.00
65582;DHT22;52231;40.090;18.348;2022-12-18T14:56:03;15.20;81.80
65582;DHT22;52231;40.090;18.348;2022-12-18T14:58:45;15.10;82.00
65582;DHT22;52231;40.090;18.348;2022-12-18T15:01:29;15.00;82.10
65582;DHT22;52231;40.090;18.348;2022-12-18T15:03:58;14.80;82.40
65582;DHT22;52231;40.090;18.348;2022-12-18T15:06:31;14.70;82.80
65582;DHT22;52231;40.090;18.348;2022-12-18T15:09:20;14.60;83.20
65582;DHT22;52231;40.090;18.348;2022-12-18T15:12:31;14.50;83.50
65582;DHT22;52231;40.090;18.348;2022-12-18T15:15:01;14.30;83.90
65582;DHT22;52231;40.090;18.348;2022-12-18T15:17:30;14.30;84.20
65582;DHT22;52231;40.090;18.348;2022-12-18T15:20:01;14.20;84.50
65582;DHT22;52231;40.090;18.348;2022-12-18T15:22:34;14.20;84.70
65582;DHT22;52231;40.090;18.348;2022-12-18T15:25:22;14.00;85.00
65582;DHT22;52231;40.090;18.348;2022-12-18T15:27:54;13.90;85.30
65582;DHT22;52231;40.090;18.348;2022-12-18T15:30:26;13.90;85.70
65582;DHT22;52231;40.090;18.348;2022-12-18T15:33:24;13.80;86.10
65582;DHT22;52231;40.090;18.348;2022-12-18T15:36:07;13.80;86.20
65582;DHT22;52231;40.090;18.348;2022-12-18T15:38:36;13.70;86.50
65582;DHT22;52231;40.090;18.348;2022-12-18T15:41:04;13.70;86.70
65582;DHT22;52231;40.090;18.348;2022-12-18T15:43:37;13.60;86.80
65582;DHT22;52231;40.090;18.348;2022-12-18T15:46:14;13.60;86.90
65582;DHT22;52231;40.090;18.348;2022-12-18T15:48:49;13.50;87.10
65582;DHT22;52231;40.090;18.348;2022-12-18T15:51:27;13.50;87.30
65582;DHT22;52231;40.090;18.348;2022-12-18T15:54:15;13.40;87.30
65582;DHT22;52231;40.090;18.348;2022-12-18T15:57:09;13.40;87.40
65582;DHT22;52231;40.090;18.348;2022-12-18T15:59:54;13.40;87.60
65582;DHT22;52231;40.090;18.348;2022-12-18T16:02:24;13.30;87.60
65582;DHT22;52231;40.090;18.348;2022-12-18T16:04:53;13.30;87.80
65582;DHT22;52231;40.090;18.348;2022-12-18T16:07:22;13.30;87.80
65582;DHT22;52231;40.090;18.348;2022-12-18T16:09:50;13.30;88.00
65582;DHT22;52231;40.090;18.348;2022-12-18T16:12:22;13.30;88.00
65582;DHT22;52231;40.090;18.348;2022-12-18T16:14:51;13.30;88.00
65582;DHT22;52231;40.090;18.348;2022-12-18T16:17:19;13.20;88.10
65582;DHT22;52231;40.090;18.348;2022-12-18T16:19:48;13.20;88.30
65582;DHT22;52231;40.090;18.348;2022-12-18T16:22:22;13.20;88.30
65582;DHT22;52231;40.090;18.348;2022-12-18T16:24:52;13.10;88.50
65582;DHT22;52231;40.090;18.348;2022-12-18T16:27:21;13.10;88.70
65582;DHT22;52231;40.090;18.348;2022-12-18T16:29:50;13.10;88.70
65582;DHT22;52231;40.090;18.348;2022-12-18T16:32:20;13.10;88.80
65582;DHT22;52231;40.090;18.348;2022-12-18T16:34:49;13.00;88.90
65582;DHT22;52231;40.090;18.348;2022-12-18T16:37:17;13.10;89.10
65582;DHT22;52231;40.090;18.348;2022-12-18T16:39:46;13.00;89.10
65582;DHT22;52231;40.090;18.348;2022-12-18T16:42:18;13.10;89.10
65582;DHT22;52231;40.090;18.348;2022-12-18T16:44:48;13.10;89.10
65582;DHT22;52231;40.090;18.348;2022-12-18T16:47:17;13.00;89.20
65582;DHT22;52231;40.090;18.348;2022-12-18T16:49:45;13.00;89.20
65582;DHT22;52231;40.090;18.348;2022-12-18T16:52:13;13.10;89.20
65582;DHT22;52231;40.090;18.348;2022-12-18T16:54:41;13.00;89.20
65582;DHT22;52231;40.090;18.348;2022-12-18T16:57:12;13.00;89.10
65582;DHT22;52231;40.090;18.348;2022-12-18T16:59:42;13.00;89.20
65582;DHT22;52231;40.090;18.348;2022-12-18T17:02:22;13.00;89.20
65582;DHT22;52231;40.090;18.348;2022-12-18T17:04:54;13.00;89.10
65582;DHT22;52231;40.090;18.348;2022-12-18T17:07:24;13.00;89.10
65582;DHT22;52231;40.090;18.348;2022-12-18T17:09:53;13.00;89.00
65582;DHT22;52231;40.090;18.348;2022-12-18T17:12:22;13.00;89.00
65582;DHT22;52231;40.090;18.348;2022-12-18T17:14:50;12.90;88.90
65582;DHT22;52231;40.090;18.348;2022-12-18T17:17:18;12.80;89.00
65582;DHT22;52231;40.090;18.348;2022-12-18T17:19:51;12.80;89.00
65582;DHT22;52231;40.090;18.348;2022-12-18T17:22:22;12.80;89.00
65582;DHT22;52231;40.090;18.348;2022-12-18T17:24:50;12.80;88.90
65582;DHT22;52231;40.090;18.348;2022-12-18T17:27:18;12.80;88.90
65582;DHT22;52231;40.090;18.348;2022-12-18T17:29:47;12.80;88.90
65582;DHT22;52231;40.090;18.348;2022-12-18T17:32:16;12.80;88.80
65582;DHT22;52231;40.090;18.348;2022-12-18T17:34:44;12.80;88.70
65582;DHT22;52231;40.090;18.348;2022-12-18T17:37:13;12.80;88.60
65582;DHT22;52231;40.090;18.348;2022-12-18T17:39:41;12.70;88.40
65582;DHT22;52231;40.090;18.348;2022-12-18T17:42:10;12.70;88.30
65582;DHT22;52231;40.090;18.348;2022-12-18T17:44:38;12.60;88.30
65582;DHT22;52231;40.090;18.348;2022-12-18T17:47:06;12.60;88.20
65582;DHT22;52231;40.090;18.348;2022-12-18T17:49:37;12.50;88.20
65582;DHT22;52231;40.090;18.348;2022-12-18T17:52:05;12.50;88.20
65582;DHT22;52231;40.090;18.348;2022-12-18T17:54:33;12.50;88.10